x

Corpus Christi, Tx - 60nm Sse Of Corpus Christi, Tx (42020) Wave Buoy

4:50pm - Sun 29th Mar 2015 All times are CDT. -5 hours from GMT.

  • Sig Wave height 3.3ft
  • Swell Direction
  • Peak Period 6s
  • Average Period 4s
  • Wind
    16mph, 18mph gusts
  • Sea Temp 71°f
  • Air Temp 72°f
  • Sea Pressure 1018.6mb
  • Corpus Christi, Tx - 60nm Sse Of Corpus Christi, Tx
  • Corpus Christi, Tx - 60nm Sse Of Corpus Christi, Tx

More Historic Weather Station data

Upgrade to MSW Pro to gain access to the past 30 days of data for over 8000 Wavebouys and Weather Stations around the globe.

Join Pro

Comparision Forecast

View Surf forecast
   
Sun 03/29 4:50pm 3.5ft 6s 4s 16 18 mph 1018.6mb 71f 72f
3:50pm 3.5ft 6s 4s 18 22 mph 1019.1mb 71f 71f
2:50pm 3.5ft 6s 4s 18 22 mph 1019.6mb 71f 71f
1:50pm 3.5ft 6s 4s 20 22 mph 1020.2mb 71f 71f
12:50pm 3.5ft 6s 4s 18 22 mph 1020.9mb 71f 71f
11:50am 3.5ft 6s 4s 18 22 mph 1021mb 71f 71f
10:50am 4ft 7s 4s 20 22 mph 1020.8mb 71f 71f
9:50am 4ft 6s 4s 20 22 mph 1020.5mb 71f 71f
8:50am 4.5ft 6s 4s 18 22 mph 1019.8mb 70f 70f
7:50am 4.5ft 6s 4s 20 25 mph 1019mb 70f 70f
6:50am 4.5ft 6s 4s 22 25 mph 1018.2mb 70f 70f
5:50am 4.5ft 5s 4s 22 27 mph 1017.9mb 70f 70f
4:50am 4ft 5s 4s 22 27 mph 1017.7mb 71f 70f
3:50am 4ft 5s 4s 22 27 mph 1018.2mb 71f 69f
2:50am 3.5ft 5s 4s 22 27 mph 1018.7mb 71f 70f
1:50am 3.5ft 5s 4s 22 25 mph 1019.5mb 71f 70f
12:50am 3.5ft 5s 4s 22 27 mph 1020mb 71f 70f
Sat 03/28 11:50pm 3ft 5s 4s 22 27 mph 1019.9mb 71f 70f
10:50pm 2.5ft 4s 4s 20 25 mph 1019.9mb 71f 70f
9:50pm 2.5ft 4s 4s 20 22 mph 1019.8mb 71f 70f
8:50pm 2.5ft 4s 4s 18 20 mph 1019.7mb 71f 70f
7:50pm 2.5ft 4s 3s 18 20 mph 1019.2mb 71f 70f
6:50pm 2ft 4s 3s 16 20 mph 1019mb 71f 70f
5:50pm 2.5ft 4s 3s 16 18 mph 1019mb 71f 70f
4:50pm 2.5ft 4s 3s 16 20 mph 1018.9mb 71f 69f
3:50pm 2ft 3s 3s 18 22 mph 1019.3mb 71f 69f
2:50pm 2.5ft 3s 3s 20 22 mph 1019.9mb 71f 69f
1:50pm 2ft 4s 3s 16 20 mph 1020.9mb 71f 69f
12:50pm 2.5ft 4s 3s 16 18 mph 1021.8mb 71f 68f
11:50am 2.5ft 4s 4s 18 20 mph 1022mb 71f 67f
10:50am 2.5ft 4s 4s 16 18 mph 1022mb 70f 68f
9:50am 2.5ft 4s 4s 16
mph
1021.9mb 70f 68f
8:50am 2.5ft 4s 4s 16 18 mph 1021.8mb 70f 67f
7:50am 3ft 4s 4s 18 20 mph 1021.2mb 70f 68f
6:50am 2.5ft 3s 4s 18 22 mph 1020.9mb 70f 68f
5:50am 2.5ft 3s 4s 16 18 mph 1020.5mb 70f 68f
4:50am 2ft 7s 4s 18 20 mph 1019.9mb 70f 68f
3:50am 1.6ft 7s 4s 16 18 mph 1020.2mb 70f 68f
2:50am 1.6ft 7s 5s 13 16 mph 1020.8mb 70f 70f
1:50am 1.6ft 8s 5s 11 13 mph 1021.1mb 70f 70f
12:50am 2ft 6s 5s 9 11 mph 1021.3mb 71f 70f
Fri 03/27 11:50pm 2.5ft 8s 5s 9
mph
1021.6mb 71f 70f
10:50pm 2.5ft 8s 5s 7 9 mph 1022mb 71f 70f
9:50pm 2.5ft 7s 5s 7 9 mph 1021.8mb 71f 69f
8:50pm 2.5ft 7s 5s 7
mph
1021.5mb 71f 68f
7:50pm 3ft 7s 5s 4
mph
1021.1mb 71f 67f
6:50pm 3ft 7s 5s 2
mph
1020.8mb 71f 68f
5:50pm 3ft 7s 5s  -  2 mph 1020.6mb 71f 68f
4:50pm 3.5ft 7s 5s 2 4 mph 1020.6mb 71f 66f
3:50pm 3.5ft 8s 5s 7 9 mph 1021mb 71f 65f
2:50pm 3.5ft 7s 5s 7 9 mph 1021.8mb 71f 64f
1:50pm 3.5ft 7s 5s 9 11 mph 1022.5mb 71f 64f
12:50pm 4.5ft 8s 5s 7 11 mph 1023.2mb 71f 64f
11:50am 4ft 7s 5s 11 13 mph 1023.2mb 70f 64f
10:50am 4.5ft 8s 5s 13 16 mph 1022.7mb 70f 64f
9:50am 5ft 6s 5s 11 16 mph 1022.5mb 70f 65f
8:50am 5ft 7s 5s 13 18 mph 1022.4mb 70f 65f
7:50am 5ft 6s 5s 18 22 mph 1021.5mb 70f 65f
6:50am 6ft 6s 5s 20 25 mph 1020.9mb 70f 65f
5:50am 6ft 7s 5s 22 27 mph 1020.5mb 70f 65f
4:50am 6.5ft 6s 5s 27 31 mph 1020.1mb 70f 66f
3:50am 6.5ft 7s 5s 27 31 mph 1020.3mb 70f 66f
2:50am 7ft 7s 5s 27 31 mph 1020mb 70f 67f
1:50am 6ft 6s 5s 27 31 mph 1019.6mb 71f 66f
12:50am 6ft 6s 5s 27 34 mph 1018.9mb 71f 66f
Thu 03/26 11:50pm 6.5ft 7s 5s 25 31 mph 1018.6mb 71f 66f
10:50pm 7ft 7s 5s 27 31 mph 1017.9mb 71f 66f
9:50pm 7ft 7s 5s 29 36 mph 1017.2mb 71f 65f
8:50pm 6.5ft 6s 5s 27 34 mph 1016.4mb 71f 65f
7:50pm 6ft 7s 5s 27 34 mph 1015.6mb 71f 67f
6:50pm 6.5ft 7s 5s 18 25 mph 1014.7mb 71f 68f
5:50pm 7ft 7s 5s 22 29 mph 1014.8mb 71f 68f
4:50pm 7ft 6s 5s 27 31 mph 1014.2mb 71f 67f
3:50pm 5.5ft 6s 5s 22 29 mph 1012.3mb 71f 66f
2:50pm 4.5ft 5s 4s 25 31 mph 1012.9mb 71f 65f
1:50pm 3.5ft 4s 4s 27 31 mph 1013mb 71f 65f
12:50pm 1.6ft 5s 4s 27 31 mph 1013.2mb 71f 66f
11:50am 1.6ft 6s 4s 11
mph
1013.6mb 71f 71f
10:50am 2ft 5s 4s 7 9 mph 1013.3mb 71f 71f
9:50am 2ft 5s 4s 7 11 mph 1012.6mb 71f 72f
8:50am 2ft 5s 4s 2 4 mph 1011.4mb 71f 71f
7:50am 2ft 5s 4s 7
mph
1010.2mb 71f 71f
6:50am 2ft 5s 4s 9 11 mph 1009.3mb 71f 72f
5:50am 2ft 5s 4s 11
mph
1009.2mb 71f 72f
4:50am 2ft 5s 4s 11
mph
1009.8mb 71f 71f
3:50am 2ft 5s 4s 9 11 mph 1010.5mb 71f 71f
2:50am 2.5ft 5s 4s 9 11 mph 1011.1mb 71f 72f
1:50am 2ft 5s 4s 11 13 mph 1011.5mb 71f 72f
12:50am 2.5ft 5s 4s 13
mph
1011.9mb 71f 72f
Wed 03/25 11:50pm 2.5ft 5s 4s 11 13 mph 1012.1mb 71f 72f